South Holston Observed Data For Previous 48 Hours

Caption
Day and Hour Reservoir Elevation (behind dam)* Tailwater Elevation (below dam)* Average Hourly Discharge*
1/14/2019 2 AM EST 1,718.84 1,488.81 3,000
1/14/2019 3 AM EST 1,719.08 1,488.81 3,000
1/14/2019 4 AM EST 1,719.02 1,488.80 3,000
1/14/2019 5 AM EST 1,718.96 1,488.81 3,000
1/14/2019 6 AM EST 1,719.15 1,488.82 3,000
1/14/2019 7 AM EST 1,718.84 1,488.80 3,000
1/14/2019 8 AM EST 1,719.02 1,488.81 3,000
1/14/2019 9 AM EST 1,718.90 1,488.82 3,000
1/14/2019 10 AM EST 1,719.02 1,488.81 3,000
1/14/2019 11 AM EST 1,718.90 1,488.81 3,000
1/14/2019 12 PM EST 1,718.90 1,488.80 3,000
1/14/2019 1 PM EST 1,718.84 1,488.80 3,000
1/14/2019 2 PM EST 1,718.90 1,488.81 3,000
1/14/2019 3 PM EST 1,718.78 1,488.81 3,000
1/14/2019 4 PM EST 1,718.84 1,488.80 3,000
1/14/2019 5 PM EST 1,718.78 1,488.82 3,000
1/14/2019 6 PM EST 1,718.72 1,488.82 2,998
1/14/2019 7 PM EST 1,718.84 1,488.82 2,999
1/14/2019 8 PM EST 1,718.72 1,488.80 2,999
1/14/2019 9 PM EST 1,718.78 1,488.81 2,998
1/14/2019 10 PM EST 1,718.72 1,488.79 2,998
1/14/2019 11 PM EST 1,718.72 1,488.78 2,990
1/15/2019 12 AM EST 1,718.66 1,488.82 2,990
1/15/2019 1 AM EST 1,718.72 1,488.81 2,990
1/15/2019 2 AM EST 1,718.60 1,488.80 2,990
1/15/2019 3 AM EST 1,718.72 1,488.82 2,990
1/15/2019 4 AM EST 1,718.72 1,488.81 2,990
1/15/2019 5 AM EST 1,718.53 1,488.79 2,990
1/15/2019 6 AM EST 1,718.60 1,488.78 2,990
1/15/2019 7 AM EST 1,718.60 1,488.80 2,990
1/15/2019 8 AM EST 1,718.53 1,488.79 2,990
1/15/2019 9 AM EST 1,718.60 1,488.80 2,990
1/15/2019 10 AM EST 1,718.53 1,488.79 2,990
1/15/2019 11 AM EST 1,718.47 1,488.81 2,990
1/15/2019 12 PM EST 1,718.35 1,488.80 2,990
1/15/2019 1 PM EST 1,718.47 1,488.83 2,990
1/15/2019 2 PM EST 1,718.47 1,488.80 2,990
1/15/2019 3 PM EST 1,718.47 1,488.79 2,990
1/15/2019 4 PM EST 1,718.47 1,488.81 2,990
1/15/2019 5 PM EST 1,718.29 1,488.81 2,990
1/15/2019 6 PM EST 1,718.29 1,488.79 2,990
1/15/2019 7 PM EST 1,718.41 1,488.80 2,990
1/15/2019 8 PM EST 1,718.35 1,488.83 2,990
1/15/2019 9 PM EST 1,718.41 1,488.80 2,990
1/15/2019 10 PM EST 1,718.35 1,488.79 2,990
1/15/2019 11 PM EST 1,718.29 1,488.81 2,990
1/16/2019 12 AM EST 1,718.29 1,488.82 2,990
1/16/2019 1 AM EST 1,718.29 1,488.80 2,990
1/16/2019 2 AM EST 1,718.17 1,488.81 2,990
1/16/2019 3 AM EST 1,718.23 1,488.79 2,990
1/16/2019 4 AM EST 1,718.11 1,488.78 2,990
1/16/2019 5 AM EST 1,718.23 1,488.81 2,990
1/16/2019 6 AM EST 1,718.17 1,488.82 2,990
1/16/2019 7 AM EST 1,718.23 1,488.80 2,990
1/16/2019 8 AM EST 1,718.11 1,488.80 3,407
1/16/2019 9 AM EST 1,718.23 1,489.19 -999
1/16/2019 10 AM EST 1,718.11 1,489.00 3,064
1/16/2019 11 AM EST 1,718.11 1,488.90 2,990
1/16/2019 12 PM EST 1,718.17 1,488.80 2,990
1/16/2019 1 PM EST 1,717.99 1,488.79 2,990
1/16/2019 2 PM EST 1,717.86 1,488.82 2,990
1/16/2019 3 PM EST 1,717.92 1,488.79 2,990
1/16/2019 4 PM EST 1,718.05 1,488.80 2,990
1/16/2019 5 PM EST 1,717.99 1,488.79 2,990

Elevations are in feet above sea level. Discharges are in cubic feet per second and are reported at the end of the hour.